Time;durP1;ratioP1;P1;durP2;ratioP2;P2;SDS_P1;SDS_P2;PMS_P1;PMS_P2;Temp;Humidity;BMP_temperature;BMP_pressure;BME280_temperature;BME280_humidity;BME280_pressure;Samples;Min_cycle;Max_cycle;Signal;HPM_P1;HPM_P2
2021/06/27 00:00:30;;;;;;;5.20;2.50;;;18.40;99.90;;;;;;4189545;28;20042;-63
2021/06/27 00:02:31;;;;;;;5.93;2.13;;;18.30;99.90;;;;;;4190183;28;20021;-62
2021/06/27 00:04:33;;;;;;;4.30;2.13;;;18.20;99.90;;;;;;4190284;28;20067;-62
2021/06/27 00:06:34;;;;;;;4.18;2.47;;;18.20;99.90;;;;;;4189881;28;20740;-63
2021/06/27 00:08:36;;;;;;;5.10;2.47;;;18.10;99.90;;;;;;4190043;28;20094;-61
2021/06/27 00:10:40;;;;;;;4.13;2.50;;;18.10;99.90;;;;;;4190215;28;20854;-61
2021/06/27 00:12:42;;;;;;;6.75;2.80;;;18.00;99.90;;;;;;4190244;28;20040;-62
2021/06/27 00:14:44;;;;;;;5.88;2.95;;;18.00;99.90;;;;;;4189988;28;20105;-62
2021/06/27 00:16:45;;;;;;;3.53;2.25;;;18.00;99.90;;;;;;4189764;28;20044;-62
2021/06/27 00:18:47;;;;;;;6.28;2.97;;;17.90;99.90;;;;;;4190354;28;20094;-62
2021/06/27 00:20:52;;;;;;;4.93;2.65;;;17.90;99.90;;;;;;4189597;28;20024;-62
2021/06/27 00:22:53;;;;;;;4.13;2.70;;;17.90;99.90;;;;;;4190282;28;20036;-62
2021/06/27 00:24:54;;;;;;;7.60;2.40;;;17.90;99.90;;;;;;4189171;28;20024;-63
2021/06/27 00:26:56;;;;;;;3.92;2.30;;;17.90;99.90;;;;;;4190255;28;20038;-63
2021/06/27 00:28:57;;;;;;;7.10;2.70;;;17.90;99.90;;;;;;4189199;28;20070;-61
2021/06/27 00:31:00;;;;;;;4.03;2.40;;;17.90;99.90;;;;;;4189606;28;20044;-61
2021/06/27 00:33:02;;;;;;;4.85;2.83;;;17.90;99.90;;;;;;4189284;28;20439;-62
2021/06/27 00:35:06;;;;;;;5.63;2.45;;;17.90;99.90;;;;;;4189427;28;20048;-66
2021/06/27 00:37:09;;;;;;;8.05;3.35;;;17.80;99.90;;;;;;4189667;28;20090;-63
2021/06/27 00:39:10;;;;;;;5.30;3.13;;;17.80;99.90;;;;;;4190031;28;20040;-62
2021/06/27 00:41:11;;;;;;;7.20;3.03;;;17.80;99.90;;;;;;4189743;28;20036;-62
2021/06/27 00:43:13;;;;;;;3.83;2.80;;;17.80;99.90;;;;;;4189786;28;20028;-61
2021/06/27 00:45:16;;;;;;;5.85;2.60;;;17.70;99.90;;;;;;4189823;28;20032;-61
2021/06/27 00:47:31;;;;;;;3.67;2.50;;;17.70;99.90;;;;;;4189260;28;20074;-62
2021/06/27 00:49:32;;;;;;;3.60;3.00;;;17.70;99.90;;;;;;4189765;28;20028;-62
2021/06/27 00:51:33;;;;;;;4.85;3.33;;;17.70;99.90;;;;;;4188685;28;20677;-65
2021/06/27 00:53:34;;;;;;;6.35;2.60;;;17.70;99.90;;;;;;4190121;28;20041;-61
2021/06/27 00:55:36;;;;;;;4.45;2.35;;;17.60;99.90;;;;;;4189212;28;20032;-67
2021/06/27 00:57:38;;;;;;;3.63;2.50;;;17.60;99.90;;;;;;4189781;28;20024;-62
2021/06/27 00:59:39;;;;;;;3.75;2.25;;;17.60;99.90;;;;;;4187900;28;20098;-63
2021/06/27 01:01:41;;;;;;;4.03;2.60;;;17.60;99.90;;;;;;4189703;28;20360;-62
2021/06/27 01:03:42;;;;;;;4.10;2.83;;;17.60;99.90;;;;;;4188901;28;20040;-63
2021/06/27 01:05:43;;;;;;;4.43;2.58;;;17.60;99.90;;;;;;4189452;28;20036;-62
2021/06/27 01:07:44;;;;;;;6.88;2.78;;;17.60;99.90;;;;;;4188380;28;20177;-62
2021/06/27 01:09:45;;;;;;;4.22;2.28;;;17.60;99.90;;;;;;4189433;28;20078;-62
2021/06/27 01:11:47;;;;;;;3.53;2.72;;;17.60;99.90;;;;;;4189397;28;20028;-63
2021/06/27 01:13:48;;;;;;;2.78;2.47;;;17.60;99.90;;;;;;4189842;28;20024;-63
2021/06/27 01:15:50;;;;;;;2.85;2.45;;;17.50;99.90;;;;;;4188785;28;20117;-62
2021/06/27 01:17:54;;;;;;;4.47;2.47;;;17.50;99.90;;;;;;4188955;28;20028;-62
2021/06/27 01:19:55;;;;;;;6.18;2.50;;;17.50;99.90;;;;;;4189417;28;20086;-62
2021/06/27 01:21:56;;;;;;;3.63;2.67;;;17.50;99.90;;;;;;4188822;28;20102;-64
2021/06/27 01:23:57;;;;;;;6.05;2.60;;;17.50;99.90;;;;;;4189763;28;20048;-62
2021/06/27 01:26:00;;;;;;;5.07;2.60;;;17.60;99.90;;;;;;4188466;28;20033;-62
2021/06/27 01:28:02;;;;;;;3.22;2.78;;;17.60;99.90;;;;;;4189131;28;20029;-63
2021/06/27 01:30:09;;;;;;;4.47;2.40;;;17.50;99.90;;;;;;4188217;28;20060;-62
2021/06/27 01:32:12;;;;;;;5.72;2.55;;;17.50;99.90;;;;;;4189536;28;20546;-62
2021/06/27 01:34:13;;;;;;;5.80;2.58;;;17.50;99.90;;;;;;4188132;28;20032;-62
2021/06/27 01:36:15;;;;;;;4.03;2.65;;;17.40;99.90;;;;;;4189088;28;20086;-63
2021/06/27 01:38:17;;;;;;;3.25;2.15;;;17.40;99.90;;;;;;4188593;28;20074;-62
2021/06/27 01:40:20;;;;;;;5.18;2.55;;;17.40;99.90;;;;;;4188741;28;20028;-62
2021/06/27 01:42:23;;;;;;;3.63;1.92;;;17.40;99.90;;;;;;4188935;28;20847;-63
2021/06/27 01:44:24;;;;;;;4.50;2.50;;;17.40;99.90;;;;;;4188670;28;20028;-62
2021/06/27 01:46:26;;;;;;;8.38;2.40;;;17.40;99.90;;;;;;4188623;28;20017;-61
2021/06/27 01:48:29;;;;;;;5.20;2.30;;;17.40;99.90;;;;;;4188804;28;20089;-61
2021/06/27 01:50:31;;;;;;;2.83;2.40;;;17.40;99.90;;;;;;4188780;28;20691;-63
2021/06/27 01:52:33;;;;;;;5.65;2.28;;;17.40;99.90;;;;;;4188547;28;20040;-62
2021/06/27 01:54:38;;;;;;;7.38;3.05;;;17.40;99.90;;;;;;4189125;28;20098;-63
2021/06/27 01:56:39;;;;;;;4.30;2.83;;;17.40;99.90;;;;;;4188344;28;20052;-61
2021/06/27 01:58:46;;;;;;;3.40;2.38;;;17.30;99.90;;;;;;4188812;28;20040;-63
2021/06/27 02:00:47;;;;;;;5.00;2.72;;;17.30;99.90;;;;;;4188632;28;20017;-63
2021/06/27 02:02:49;;;;;;;3.30;1.98;;;17.30;99.90;;;;;;4188782;28;20090;-61
2021/06/27 02:04:50;;;;;;;7.00;2.65;;;17.30;99.90;;;;;;4187821;28;20048;-62
2021/06/27 02:06:51;;;;;;;3.38;2.28;;;17.30;99.90;;;;;;4187273;28;20565;-62
2021/06/27 02:08:53;;;;;;;6.43;2.80;;;17.30;99.90;;;;;;4187968;28;20036;-62
2021/06/27 02:10:54;;;;;;;9.45;3.33;;;17.30;99.90;;;;;;4190599;28;20881;-64
2021/06/27 02:12:58;;;;;;;6.78;2.53;;;17.30;99.90;;;;;;4191953;28;20427;-62
2021/06/27 02:14:59;;;;;;;7.22;2.92;;;17.30;99.90;;;;;;4192103;28;20032;-61
2021/06/27 02:17:00;;;;;;;3.45;2.72;;;17.30;99.90;;;;;;4191506;28;20036;-62
2021/06/27 02:19:02;;;;;;;5.18;3.10;;;17.40;99.90;;;;;;4192143;28;20029;-61
2021/06/27 02:21:07;;;;;;;7.85;2.42;;;17.30;99.90;;;;;;4190070;28;20074;-62
2021/06/27 02:23:08;;;;;;;4.35;2.47;;;17.30;99.90;;;;;;4191878;28;20090;-61
2021/06/27 02:25:10;;;;;;;4.45;2.58;;;17.30;99.90;;;;;;4191388;28;20094;-62
2021/06/27 02:27:11;;;;;;;4.63;2.50;;;17.30;99.90;;;;;;4190114;28;20094;-62
2021/06/27 02:29:12;;;;;;;3.47;2.10;;;17.30;99.90;;;;;;4191679;28;20029;-63
2021/06/27 02:31:14;;;;;;;4.25;2.63;;;17.30;99.90;;;;;;4189709;28;20601;-61
2021/06/27 02:33:16;;;;;;;3.67;2.35;;;17.30;99.90;;;;;;4191568;28;20613;-61
2021/06/27 02:35:17;;;;;;;6.20;3.13;;;17.30;99.90;;;;;;4191217;28;20048;-62
2021/06/27 02:37:18;;;;;;;4.78;2.70;;;17.30;99.90;;;;;;4191418;28;20431;-62
2021/06/27 02:39:19;;;;;;;6.43;3.03;;;17.20;99.90;;;;;;4190040;28;20047;-61
2021/06/27 02:41:21;;;;;;;5.82;2.70;;;17.20;99.90;;;;;;4191737;28;20037;-62
2021/06/27 02:43:23;;;;;;;4.38;2.50;;;17.20;99.90;;;;;;4191406;28;20869;-61
2021/06/27 02:45:24;;;;;;;3.85;2.65;;;17.20;99.90;;;;;;4191998;28;20066;-60
2021/06/27 02:47:25;;;;;;;4.30;2.63;;;17.30;99.90;;;;;;4190514;28;20080;-61
2021/06/27 02:49:26;;;;;;;4.30;3.00;;;17.40;99.90;;;;;;4191055;28;20028;-61
2021/06/27 02:51:27;;;;;;;7.25;2.65;;;17.50;99.90;;;;;;4190938;28;20493;-61
2021/06/27 02:53:28;;;;;;;3.88;2.60;;;17.60;99.90;;;;;;4191296;28;20021;-61
2021/06/27 02:55:30;;;;;;;6.32;3.17;;;17.70;99.90;;;;;;4191288;28;20090;-64
2021/06/27 02:57:31;;;;;;;3.92;2.53;;;17.80;99.90;;;;;;4190679;28;20098;-61
2021/06/27 02:59:32;;;;;;;2.75;2.50;;;18.10;99.90;;;;;;4191376;28;20033;-61
2021/06/27 03:01:33;;;;;;;3.70;2.20;;;18.30;99.90;;;;;;4191045;28;20028;-63
2021/06/27 03:03:35;;;;;;;5.38;2.72;;;18.60;99.90;;;;;;4191016;28;20370;-61
2021/06/27 03:05:36;;;;;;;6.22;2.95;;;18.80;99.90;;;;;;4190538;28;20089;-62
2021/06/27 03:07:37;;;;;;;7.80;2.88;;;19.00;99.90;;;;;;4191120;28;20094;-62
2021/06/27 03:09:38;;;;;;;6.03;2.58;;;19.30;99.90;;;;;;4190237;28;20028;-61
2021/06/27 03:11:39;;;;;;;5.05;2.30;;;19.40;99.90;;;;;;4191349;28;20093;-62
2021/06/27 03:13:42;;;;;;;5.22;3.80;;;19.70;99.90;;;;;;4190652;28;20033;-62
2021/06/27 03:15:43;;;;;;;11.63;5.40;;;19.90;99.90;;;;;;4190772;28;20040;-61
2021/06/27 03:17:45;;;;;;;8.63;6.70;;;19.80;99.90;;;;;;4190579;28;20454;-61
2021/06/27 03:19:47;;;;;;;12.55;10.20;;;19.80;99.90;;;;;;4190917;28;20045;-62
2021/06/27 03:21:48;;;;;;;10.35;8.52;;;20.00;99.90;;;;;;4189823;28;20548;-62
2021/06/27 03:23:49;;;;;;;15.70;8.25;;;20.20;99.90;;;;;;4190702;28;20090;-61
2021/06/27 03:25:50;;;;;;;9.80;6.72;;;20.50;99.90;;;;;;4190645;28;20815;-61
2021/06/27 03:27:52;;;;;;;13.02;6.57;;;20.60;99.90;;;;;;4189227;28;20052;-62
2021/06/27 03:29:53;;;;;;;11.57;6.95;;;21.00;99.90;;;;;;4191037;28;20565;-61
2021/06/27 03:31:54;;;;;;;12.93;9.20;;;21.50;99.90;;;;;;4190623;28;20496;-62
2021/06/27 03:33:55;;;;;;;9.90;7.05;;;22.00;99.90;;;;;;4190676;28;20078;-64
2021/06/27 03:35:57;;;;;;;10.27;5.35;;;22.30;99.90;;;;;;4190318;28;20033;-62
2021/06/27 03:40:05;;;;;;;4.43;2.92;;;22.70;99.90;;;;;;4190023;28;20074;-62
2021/06/27 03:42:07;;;;;;;5.38;2.38;;;22.90;99.90;;;;;;4191251;28;20044;-62
2021/06/27 03:44:09;;;;;;;3.67;2.55;;;23.20;99.90;;;;;;4188896;28;20104;-61
2021/06/27 03:46:12;;;;;;;4.28;2.38;;;23.50;99.90;;;;;;4190719;28;20075;-61
2021/06/27 03:48:13;;;;;;;3.30;1.95;;;23.50;99.90;;;;;;4189349;28;20442;-60
2021/06/27 03:50:17;;;;;;;4.68;3.30;;;23.70;99.90;;;;;;4190306;28;20045;-60
2021/06/27 03:52:19;;;;;;;7.53;2.72;;;23.90;99.90;;;;;;4189760;28;20120;-60
2021/06/27 03:54:20;;;;;;;4.97;2.00;;;24.00;99.90;;;;;;4190167;28;20051;-61
2021/06/27 03:56:21;;;;;;;11.80;2.60;;;24.10;99.90;;;;;;4189201;28;20413;-62
2021/06/27 03:58:23;;;;;;;4.20;2.53;;;24.30;99.90;;;;;;4189919;28;20037;-60
2021/06/27 04:00:24;;;;;;;3.67;2.30;;;24.50;99.90;;;;;;4189588;28;20024;-62
2021/06/27 04:02:25;;;;;;;7.18;2.25;;;24.90;99.90;;;;;;4189818;28;20577;-60
2021/06/27 04:04:27;;;;;;;4.40;2.30;;;25.20;99.90;;;;;;4189692;28;20464;-60
2021/06/27 04:06:28;;;;;;;5.72;2.38;;;25.50;99.90;;;;;;4190030;28;20062;-61
2021/06/27 04:08:29;;;;;;;3.45;2.20;;;26.10;99.90;;;;;;4190169;28;20138;-60
2021/06/27 04:10:30;;;;;;;9.98;2.60;;;26.30;99.40;;;;;;4189180;28;20094;-60
2021/06/27 04:12:31;;;;;;;5.15;2.28;;;26.40;98.90;;;;;;4190318;28;20094;-63
2021/06/27 04:14:32;;;;;;;2.30;1.98;;;26.50;98.60;;;;;;4189474;28;20427;-60
2021/06/27 04:16:33;;;;;;;6.30;2.10;;;27.00;98.10;;;;;;4189664;28;20048;-62
2021/06/27 04:18:37;;;;;;;4.25;1.95;;;27.50;97.30;;;;;;4189241;28;20040;-60
2021/06/27 04:20:38;;;;;;;6.65;2.20;;;27.90;96.20;;;;;;4189956;28;21051;-64
2021/06/27 04:22:39;;;;;;;4.57;2.42;;;28.30;95.50;;;;;;4188622;28;20750;-61
2021/06/27 04:24:40;;;;;;;3.38;2.58;;;28.70;94.70;;;;;;4189181;28;20369;-60
2021/06/27 04:26:41;;;;;;;4.28;1.92;;;28.90;93.90;;;;;;4189428;28;20032;-62
2021/06/27 04:28:42;;;;;;;3.20;1.88;;;29.00;93.30;;;;;;4189422;28;20082;-60
2021/06/27 04:30:44;;;;;;;2.25;1.80;;;29.20;92.70;;;;;;4189216;28;20558;-61
2021/06/27 04:32:45;;;;;;;4.20;2.22;;;29.40;92.00;;;;;;4189203;28;20028;-60
2021/06/27 04:34:46;;;;;;;2.20;1.95;;;29.40;91.40;;;;;;4189096;28;20090;-65
2021/06/27 04:36:47;;;;;;;3.00;1.85;;;29.30;91.10;;;;;;4188514;28;20069;-60
2021/06/27 04:38:49;;;;;;;2.00;1.88;;;29.20;90.70;;;;;;4189479;28;20032;-62
2021/06/27 04:40:50;;;;;;;5.30;2.33;;;29.10;90.60;;;;;;4189430;28;20050;-61
2021/06/27 04:42:51;;;;;;;1.83;1.70;;;29.30;90.10;;;;;;4189468;28;20028;-60
2021/06/27 04:44:52;;;;;;;3.60;1.92;;;29.40;89.60;;;;;;4188949;28;20029;-60
2021/06/27 04:46:53;;;;;;;4.38;1.85;;;29.30;88.70;;;;;;4189301;28;20105;-61
2021/06/27 04:48:54;;;;;;;3.03;1.60;;;29.20;88.40;;;;;;4188507;28;20502;-60
2021/06/27 04:50:56;;;;;;;4.78;1.80;;;29.40;88.20;;;;;;4188678;28;20125;-60
2021/06/27 04:52:57;;;;;;;3.47;1.83;;;29.80;87.30;;;;;;4188570;28;20028;-61
2021/06/27 04:54:58;;;;;;;5.35;2.13;;;30.10;86.30;;;;;;4188771;28;20431;-60
2021/06/27 04:56:59;;;;;;;4.25;1.90;;;30.60;85.20;;;;;;4188576;28;20040;-61
2021/06/27 04:59:00;;;;;;;1.90;1.77;;;30.90;83.80;;;;;;4188193;28;20086;-66
2021/06/27 05:01:01;;;;;;;5.95;1.90;;;31.00;82.60;;;;;;4188292;28;20094;-62
2021/06/27 05:03:04;;;;;;;3.95;2.20;;;31.00;81.50;;;;;;4188519;28;20082;-62
2021/06/27 05:05:07;;;;;;;4.90;2.33;;;31.20;81.20;;;;;;4188393;28;20036;-62
2021/06/27 05:07:08;;;;;;;6.18;1.75;;;31.40;80.50;;;;;;4188136;28;20020;-61
2021/06/27 05:09:09;;;;;;;5.07;2.03;;;31.60;79.20;;;;;;4188688;28;20549;-61
2021/06/27 05:11:10;;;;;;;2.83;1.67;;;31.80;78.20;;;;;;4187776;28;20032;-61
2021/06/27 05:13:11;;;;;;;3.72;1.30;;;32.00;77.20;;;;;;4189526;28;20028;-61
2021/06/27 05:15:13;;;;;;;3.25;1.80;;;32.10;76.30;;;;;;4187741;28;20082;-62
2021/06/27 05:17:14;;;;;;;1.40;1.30;;;32.20;75.60;;;;;;4188839;28;20045;-62
2021/06/27 05:19:15;;;;;;;2.38;1.98;;;32.40;74.50;;;;;;4187137;28;20040;-61
2021/06/27 05:21:16;;;;;;;2.95;1.80;;;32.40;74.30;;;;;;4189078;28;20081;-64
2021/06/27 05:23:18;;;;;;;5.40;2.90;;;32.50;73.70;;;;;;4188049;28;20090;-63
2021/06/27 05:25:19;;;;;;;3.13;2.53;;;32.70;73.00;;;;;;4188755;28;20174;-60
2021/06/27 05:27:20;;;;;;;6.55;2.00;;;32.90;72.00;;;;;;4186876;28;20502;-63
2021/06/27 05:29:21;;;;;;;4.75;1.98;;;32.90;72.00;;;;;;4188072;28;20036;-62
2021/06/27 05:31:22;;;;;;;3.03;1.58;;;33.10;71.40;;;;;;4188119;28;20060;-61
2021/06/27 05:33:23;;;;;;;2.15;1.90;;;33.30;70.70;;;;;;4188682;28;20032;-61
2021/06/27 05:35:24;;;;;;;6.78;2.85;;;32.80;69.90;;;;;;4188387;28;20101;-62
2021/06/27 05:37:25;;;;;;;4.60;3.35;;;32.40;70.60;;;;;;4188260;28;20033;-61
2021/06/27 05:39:26;;;;;;;9.35;4.43;;;31.90;71.00;;;;;;4188133;28;20086;-60
2021/06/27 05:41:27;;;;;;;3.90;2.22;;;31.70;71.80;;;;;;4187904;28;20040;-64
2021/06/27 05:43:29;;;;;;;5.45;2.78;;;31.90;71.50;;;;;;4188907;28;20029;-60
2021/06/27 05:45:30;;;;;;;3.28;2.17;;;32.10;71.20;;;;;;4187496;28;20083;-60
2021/06/27 05:47:31;;;;;;;1.98;1.70;;;31.90;71.10;;;;;;4188175;28;20036;-63
2021/06/27 05:49:32;;;;;;;2.35;1.77;;;31.80;70.90;;;;;;4187939;28;20074;-66
2021/06/27 05:51:37;;;;;;;3.38;1.95;;;31.90;71.10;;;;;;4188947;28;20067;-63
2021/06/27 05:53:38;;;;;;;5.35;2.42;;;31.90;70.60;;;;;;4187726;28;20029;-64
2021/06/27 05:55:40;;;;;;;2.05;1.80;;;31.30;71.00;;;;;;4188320;28;20056;-62
2021/06/27 05:57:41;;;;;;;3.72;2.47;;;31.20;71.50;;;;;;4188472;28;20098;-64
2021/06/27 05:59:43;;;;;;;4.78;2.03;;;31.30;71.80;;;;;;4188420;28;20101;-63
2021/06/27 06:01:44;;;;;;;3.63;2.15;;;31.40;71.60;;;;;;4188198;28;20044;-65
2021/06/27 06:03:45;;;;;;;3.60;3.20;;;31.30;71.60;;;;;;4188180;28;20044;-64
2021/06/27 06:05:46;;;;;;;2.55;1.83;;;31.40;71.50;;;;;;4188565;28;20074;-62
2021/06/27 06:07:47;;;;;;;4.45;2.40;;;31.70;71.20;;;;;;4187675;28;20545;-62
2021/06/27 06:09:48;;;;;;;6.20;2.53;;;32.00;70.90;;;;;;4188337;28;20021;-61
2021/06/27 06:11:50;;;;;;;5.35;3.20;;;32.20;70.30;;;;;;4187939;28;20033;-62
2021/06/27 06:13:51;;;;;;;4.85;2.85;;;32.10;69.90;;;;;;4189057;28;20546;-62
2021/06/27 06:15:52;;;;;;;4.47;2.72;;;31.80;70.30;;;;;;4187638;28;20090;-62
2021/06/27 06:17:53;;;;;;;6.75;4.25;;;31.90;70.30;;;;;;4187874;28;20090;-61
2021/06/27 06:19:54;;;;;;;9.73;2.83;;;31.40;70.30;;;;;;4187672;28;20106;-61
2021/06/27 06:21:55;;;;;;;5.90;2.75;;;31.30;71.00;;;;;;4188173;28;20033;-61
2021/06/27 06:23:56;;;;;;;9.40;3.22;;;31.40;71.30;;;;;;4187559;28;20565;-62
2021/06/27 06:25:57;;;;;;;6.28;2.50;;;31.60;71.00;;;;;;4188248;28;20078;-62
2021/06/27 06:27:58;;;;;;;6.55;2.95;;;31.40;71.00;;;;;;4187811;28;20028;-64
2021/06/27 06:30:00;;;;;;;6.47;3.17;;;30.80;71.80;;;;;;4188163;28;20044;-63
2021/06/27 06:32:01;;;;;;;6.32;3.88;;;30.50;72.60;;;;;;4187909;28;20021;-62
2021/06/27 06:34:02;;;;;;;8.43;2.92;;;30.00;73.20;;;;;;4187597;28;20044;-62
2021/06/27 06:36:04;;;;;;;5.70;3.22;;;29.20;74.30;;;;;;4188112;28;20036;-61
2021/06/27 06:38:06;;;;;;;6.88;3.03;;;28.80;75.40;;;;;;4187646;28;20102;-65
2021/06/27 06:40:08;;;;;;;10.30;3.00;;;28.70;76.40;;;;;;4187791;28;20553;-65
2021/06/27 06:42:10;;;;;;;4.68;3.13;;;29.20;76.30;;;;;;4187554;28;20101;-63
2021/06/27 06:44:11;;;;;;;8.18;3.60;;;29.80;75.40;;;;;;4188475;28;20098;-62
2021/06/27 06:46:12;;;;;;;7.15;2.83;;;29.90;74.80;;;;;;4187964;28;20029;-61
2021/06/27 06:48:14;;;;;;;7.05;2.80;;;30.00;74.90;;;;;;4188325;28;20070;-62
2021/06/27 06:50:15;;;;;;;4.88;2.90;;;30.30;74.70;;;;;;4188072;28;20576;-62
2021/06/27 06:52:16;;;;;;;4.80;2.78;;;30.60;74.50;;;;;;4188246;28;20036;-61
2021/06/27 06:54:17;;;;;;;5.38;3.45;;;30.40;74.60;;;;;;4187844;28;20418;-61
2021/06/27 06:56:19;;;;;;;11.15;3.50;;;30.40;74.70;;;;;;4188440;28;20056;-62
2021/06/27 06:58:21;;;;;;;10.73;3.40;;;30.40;74.60;;;;;;4189252;28;20025;-62
2021/06/27 07:00:23;;;;;;;9.73;3.35;;;29.70;74.70;;;;;;4190675;28;20102;-62
2021/06/27 07:02:24;;;;;;;8.00;3.42;;;28.90;76.10;;;;;;4190613;28;20033;-61
2021/06/27 07:04:25;;;;;;;6.40;3.47;;;29.00;76.80;;;;;;4191285;28;20024;-63
2021/06/27 07:06:26;;;;;;;6.32;3.10;;;29.20;76.70;;;;;;4190356;28;20032;-61
2021/06/27 07:08:28;;;;;;;5.63;3.70;;;29.50;76.80;;;;;;4190392;28;20074;-61
2021/06/27 07:10:29;;;;;;;4.20;3.30;;;30.00;76.20;;;;;;4190282;28;20473;-61
2021/06/27 07:12:31;;;;;;;6.18;3.10;;;30.20;75.80;;;;;;4190695;28;20078;-61
2021/06/27 07:14:33;;;;;;;8.70;3.40;;;30.30;75.90;;;;;;4191294;28;20062;-61
2021/06/27 07:16:34;;;;;;;5.53;3.30;;;30.50;75.80;;;;;;4190049;28;20538;-61
2021/06/27 07:18:35;;;;;;;3.20;2.90;;;30.70;75.60;;;;;;4190772;28;20455;-60
2021/06/27 07:20:36;;;;;;;4.65;3.30;;;30.70;75.60;;;;;;4190690;28;20395;-64
2021/06/27 07:22:37;;;;;;;3.03;2.55;;;30.40;75.70;;;;;;4191055;28;20058;-61
2021/06/27 07:24:38;;;;;;;5.88;3.15;;;30.10;76.30;;;;;;4189887;28;20086;-62
2021/06/27 07:26:39;;;;;;;4.40;3.08;;;29.80;77.20;;;;;;4190821;28;20024;-62
2021/06/27 07:28:41;;;;;;;11.48;5.45;;;29.00;77.90;;;;;;4189547;28;20058;-61
2021/06/27 07:30:42;;;;;;;3.35;2.80;;;28.10;79.30;;;;;;4190021;28;20053;-61
2021/06/27 07:32:43;;;;;;;3.38;2.83;;;28.00;80.30;;;;;;4190135;28;20849;-64
2021/06/27 07:34:44;;;;;;;9.35;4.90;;;28.40;80.00;;;;;;4190590;28;20473;-61
2021/06/27 07:36:45;;;;;;;6.40;4.65;;;28.00;80.10;;;;;;4189748;28;20092;-64
2021/06/27 07:38:46;;;;;;;3.60;3.30;;;28.20;81.00;;;;;;4189833;28;20032;-61
2021/06/27 07:40:47;;;;;;;4.60;3.40;;;28.70;80.60;;;;;;4190470;28;21152;-62
2021/06/27 07:42:50;;;;;;;4.53;2.92;;;29.00;79.90;;;;;;4190333;28;20029;-60
2021/06/27 07:44:51;;;;;;;7.85;4.07;;;28.60;80.20;;;;;;4191134;28;20041;-60
2021/06/27 07:46:52;;;;;;;10.25;3.70;;;28.50;80.70;;;;;;4189677;28;20033;-61
2021/06/27 07:48:54;;;;;;;10.43;4.90;;;27.90;81.40;;;;;;4190079;28;20647;-60
2021/06/27 07:50:55;;;;;;;8.23;4.57;;;27.70;82.60;;;;;;4189909;28;20161;-64
2021/06/27 07:52:56;;;;;;;3.80;3.10;;;27.40;83.50;;;;;;4190265;28;20082;-62
2021/06/27 07:54:57;;;;;;;3.55;3.17;;;27.60;83.60;;;;;;4189528;28;20432;-62
2021/06/27 07:56:58;;;;;;;6.70;3.47;;;27.90;83.70;;;;;;4190080;28;20044;-62
2021/06/27 07:58:59;;;;;;;4.10;3.50;;;28.10;83.70;;;;;;4189040;28;20498;-62
2021/06/27 08:01:01;;;;;;;4.43;3.70;;;28.00;83.20;;;;;;4189908;28;20032;-62
2021/06/27 08:03:02;;;;;;;3.42;3.08;;;28.10;83.50;;;;;;4188227;28;20025;-63
2021/06/27 08:05:05;;;;;;;6.00;3.88;;;28.30;83.30;;;;;;4190296;28;20457;-62
2021/06/27 08:07:06;;;;;;;4.95;3.72;;;28.40;83.10;;;;;;4189690;28;20561;-63
2021/06/27 08:09:08;;;;;;;3.55;2.30;;;28.60;82.60;;;;;;4188957;28;20041;-65
2021/06/27 08:11:09;;;;;;;5.30;2.40;;;28.40;82.20;;;;;;4189597;28;20534;-62
2021/06/27 08:13:10;;;;;;;3.03;2.72;;;28.40;82.70;;;;;;4189145;28;20101;-62
2021/06/27 08:15:18;;;;;;;5.00;2.90;;;28.40;82.40;;;;;;4190652;28;20048;-59
2021/06/27 08:17:19;;;;;;;3.72;3.20;;;28.60;82.30;;;;;;4189253;28;20040;-63
2021/06/27 08:19:20;;;;;;;4.85;3.15;;;28.50;82.30;;;;;;4190008;28;20070;-64
2021/06/27 08:21:21;;;;;;;5.60;2.90;;;28.70;82.50;;;;;;4188879;28;20868;-62
2021/06/27 08:23:23;;;;;;;5.70;3.20;;;28.80;82.20;;;;;;4189637;28;20374;-62
2021/06/27 08:25:24;;;;;;;7.10;3.53;;;28.80;81.80;;;;;;4188455;28;20374;-62
2021/06/27 08:27:25;;;;;;;6.03;4.15;;;28.70;82.30;;;;;;4189707;28;20353;-61
2021/06/27 08:29:26;;;;;;;5.55;3.20;;;28.60;82.80;;;;;;4189038;28;20045;-61
2021/06/27 08:31:28;;;;;;;6.03;4.25;;;28.50;82.60;;;;;;4189677;28;20082;-62
2021/06/27 08:33:29;;;;;;;6.95;4.47;;;27.90;83.00;;;;;;4188955;28;20025;-61
2021/06/27 08:35:30;;;;;;;5.00;3.10;;;27.70;84.00;;;;;;4189492;28;20070;-60
2021/06/27 08:37:31;;;;;;;6.78;2.92;;;27.70;84.40;;;;;;4188332;28;20029;-62
2021/06/27 08:39:33;;;;;;;9.07;3.58;;;27.40;83.90;;;;;;4188154;28;20844;-63
2021/06/27 08:41:34;;;;;;;7.25;3.40;;;27.00;85.30;;;;;;4188222;28;20050;-64
2021/06/27 08:43:35;;;;;;;3.60;3.13;;;27.10;85.80;;;;;;4189366;28;20040;-63
2021/06/27 08:45:52;;;;;;;5.47;2.47;;;27.20;85.60;;;;;;4188113;28;20075;-60
2021/06/27 08:47:53;;;;;;;5.30;2.28;;;27.30;85.40;;;;;;4187345;28;20201;-62
2021/06/27 08:49:55;;;;;;;7.03;3.58;;;27.40;85.50;;;;;;4189076;28;20922;-63
2021/06/27 08:51:58;;;;;;;6.30;2.92;;;27.60;85.40;;;;;;4188724;28;20024;-63
2021/06/27 08:53:59;;;;;;;3.45;2.72;;;27.30;85.00;;;;;;4188835;28;20470;-63
2021/06/27 08:56:05;;;;;;;4.38;2.47;;;27.30;85.30;;;;;;4188559;28;20094;-63
2021/06/27 08:58:09;;;;;;;3.63;2.63;;;27.50;85.10;;;;;;4188951;28;20050;-62
2021/06/27 09:00:11;;;;;;;3.50;2.22;;;27.50;84.10;;;;;;4188175;28;20024;-62
2021/06/27 09:02:13;;;;;;;13.00;3.47;;;27.10;84.60;;;;;;4188820;28;20028;-63
2021/06/27 09:04:16;;;;;;;5.35;2.95;;;27.20;85.00;;;;;;4188823;28;20545;-65
2021/06/27 09:06:30;;;;;;;4.40;3.17;;;27.40;85.50;;;;;;4187744;28;20044;-63
2021/06/27 09:08:31;;;;;;;3.08;2.50;;;27.20;84.90;;;;;;4188270;28;20086;-61
2021/06/27 09:10:32;;;;;;;7.95;2.45;;;27.10;84.60;;;;;;4188876;28;20070;-62
2021/06/27 09:12:52;;;;;;;7.53;2.60;;;27.00;84.00;;;;;;4188166;28;20082;-61
2021/06/27 09:14:57;;;;;;;5.80;2.97;;;27.10;85.40;;;;;;4189397;28;20109;-63
2021/06/27 09:17:08;;;;;;;7.00;3.30;;;27.30;85.00;;;;;;4187878;28;20049;-65
2021/06/27 09:19:09;;;;;;;6.70;4.05;;;27.40;85.80;;;;;;4188902;28;20121;-59
2021/06/27 09:21:10;;;;;;;6.65;3.58;;;27.50;85.10;;;;;;4187623;28;20045;-63
2021/06/27 09:23:13;;;;;;;3.25;2.58;;;27.70;84.80;;;;;;4189342;28;20094;-61
2021/06/27 09:25:25;;;;;;;4.22;3.20;;;27.70;84.40;;;;;;4188092;28;20029;-62
2021/06/27 09:27:26;;;;;;;3.88;2.20;;;27.60;84.50;;;;;;4187298;28;20454;-61
2021/06/27 09:29:27;;;;;;;5.03;2.67;;;27.60;83.70;;;;;;4188647;28;20117;-62
2021/06/27 09:31:35;;;;;;;2.95;2.17;;;27.70;83.60;;;;;;4188262;28;20136;-62
2021/06/27 09:33:37;;;;;;;1.60;1.50;;;27.80;84.10;;;;;;4177909;28;20102;-62
2021/06/27 09:35:46;;;;;;;3.35;2.47;;;28.00;82.80;;;;;;4173434;28;20064;-62
2021/06/27 09:37:47;;;;;;;4.60;2.50;;;28.10;81.40;;;;;;4171297;28;20481;-62
2021/06/27 09:40:01;;;;;;;3.72;2.08;;;27.80;82.80;;;;;;4180767;28;20032;-61
2021/06/27 09:42:04;;;;;;;4.95;2.28;;;27.50;79.70;;;;;;4171788;28;20489;-62
2021/06/27 09:44:11;;;;;;;8.73;2.30;;;27.20;80.60;;;;;;4172943;28;20420;-62
2021/06/27 09:46:12;;;;;;;4.25;2.00;;;27.20;81.00;;;;;;4172450;28;20037;-63
2021/06/27 09:48:14;;;;;;;3.45;2.17;;;27.30;81.10;;;;;;4172041;28;20029;-63
2021/06/27 09:50:29;;;;;;;5.28;1.98;;;27.40;81.00;;;;;;4172240;28;20033;-63
2021/06/27 09:52:39;;;;;;;4.20;2.10;;;27.50;77.70;;;;;;4171716;28;20041;-62
2021/06/27 09:54:41;;;;;;;;;;;27.50;79.10;;;;;;4172193;28;20816;-64
2021/06/27 09:56:43;;;;;;;3.17;1.95;;;27.50;79.60;;;;;;4171247;28;19920;-64
2021/06/27 09:59:02;;;;;;;2.92;2.08;;;27.60;78.30;;;;;;4171689;28;20079;-63
2021/06/27 10:01:21;;;;;;;4.80;2.00;;;27.40;78.50;;;;;;4171238;28;20091;-64
2021/06/27 10:03:24;;;;;;;6.00;2.03;;;27.40;78.70;;;;;;4171903;28;20049;-64
2021/06/27 10:05:25;;;;;;;3.22;1.45;;;27.40;79.30;;;;;;4170588;28;20049;-62
2021/06/27 10:07:38;;;;;;;1.50;1.40;;;27.50;79.20;;;;;;4171795;28;20029;-63
2021/06/27 10:09:44;;;;;;;7.88;2.03;;;27.70;76.90;;;;;;4171950;28;20067;-62
2021/06/27 10:12:06;;;;;;;3.67;2.08;;;27.80;77.90;;;;;;4171814;28;20025;-62
2021/06/27 10:14:10;;;;;;;4.05;1.52;;;27.70;79.40;;;;;;4172253;28;20071;-63
2021/06/27 10:16:26;;;;;;;1.50;1.20;;;27.60;76.70;;;;;;4171390;28;20836;-62
2021/06/27 10:18:28;;;;;;;7.55;1.55;;;27.50;76.50;;;;;;4171405;28;20439;-62
2021/06/27 10:20:29;;;;;;;3.15;1.85;;;27.50;76.70;;;;;;4171898;28;20428;-62
2021/06/27 10:22:31;;;;;;;2.25;1.73;;;27.60;77.00;;;;;;4171094;28;20083;-63
2021/06/27 10:24:33;;;;;;;4.13;1.80;;;27.80;77.10;;;;;;4171578;28;20875;-62
2021/06/27 10:26:35;;;;;;;4.38;2.53;;;27.90;76.70;;;;;;4170845;28;20037;-63
2021/06/27 10:28:36;;;;;;;3.55;1.70;;;27.80;77.00;;;;;;4171523;28;20071;-63
2021/06/27 10:30:37;;;;;;;4.07;2.30;;;27.60;77.60;;;;;;4170630;28;20056;-62
2021/06/27 10:32:44;;;;;;;2.78;2.10;;;27.50;78.30;;;;;;4174367;28;20126;-63
2021/06/27 10:34:46;;;;;;;4.10;2.17;;;27.60;78.30;;;;;;4174178;28;20074;-63
2021/06/27 10:36:54;;;;;;;3.20;1.63;;;27.60;78.60;;;;;;4174791;28;20103;-63